Terminal Aerodrome Forecast
Issued by NWS

Home | Current Version | Previous Version | Graphics & Text | Print | Product List | Glossary On
Versions: 1 2 3 4 5 6 7 8 9 10 11 12 13 14 15
000
FTUS43 KGRB 180500
TAFCWA
TAF
KCWA 180523Z 1806/1906 33009G14KT P6SM BKN019 OVC035
      TEMPO 1806/1809 SCT020 BKN040
     FM180900 33009KT P6SM BKN025 BKN060
     FM181300 34009KT P6SM SCT025 BKN060
     FM181500 33009G15KT P6SM SCT025 SCT060
     FM181800 33005KT P6SM SKC
      AMD LTD TO CLD VIS AND WIND TIL 181200=

USA.gov is the U.S. government's official web portal to all federal, state and local government web resources and services.